KHYS/HYS METAR and TAF weather

Enter ICAO airport designator
Station Type Date Time Source
KHYS METAR 2020/09/26 10:56 UTC NOAA

KHYS 261056Z AUTO 18004KT 10SM CLR 17/12 A2973 RMK AO2 SLP047 T01670122


Station Type Date Time Source
KHYS Decoded METAR 2020/09/26 10:56 UTC NOAA

Hays, Hays Regional Airport, KS, United States (KHYS) 38-51N 099-16W
Sep 26, 2020 - 06:56 AM EDT / 2020.09.26 1056 UTC
Wind: from the S (180 degrees) at 5 MPH (4 KT):0
Visibility: 10 mile(s):0
Sky conditions: clear
Temperature: 62.1 F (16.7 C)
Dew Point: 54.0 F (12.2 C)
Relative Humidity: 74%
Pressure (altimeter): 29.73 in. Hg (1006 hPa)
ob: KHYS 261056Z AUTO 18004KT 10SM CLR 17/12 A2973 RMK AO2 SLP047 T01670122
cycle: 11

Station Type Date Time Source
KHYS TAF 2020/09/26 06:22 UTC NOAA

TAF KHYS 260520Z 2606/2706 18010KT P6SM SKC WS020/22040KT
FM261200 22009KT P6SM SKC
FM261500 22012G22KT P6SM SKC
FM270000 17010KT P6SM SKC

Example: see airport list